createdAt,value
2017-11-11T00:00:32.069Z,0
2017-11-11T00:01:32.981Z,0
2017-11-11T00:02:33.693Z,0
2017-11-11T00:03:34.411Z,0
2017-11-11T00:04:35.134Z,0
2017-11-11T00:05:35.860Z,0
2017-11-11T00:06:36.682Z,0
2017-11-11T00:07:37.472Z,0
2017-11-11T00:08:38.193Z,0
2017-11-11T00:09:38.931Z,0
2017-11-11T00:10:39.702Z,0
2017-11-11T00:11:40.524Z,0
2017-11-11T00:12:41.302Z,0
2017-11-11T00:13:42.032Z,0
2017-11-11T00:14:42.755Z,0
2017-11-11T00:15:43.532Z,0
2017-11-11T00:16:44.245Z,0
2017-11-11T00:17:44.961Z,0
2017-11-11T00:18:45.732Z,0
2017-11-11T00:19:46.532Z,0
2017-11-11T00:20:47.760Z,0
2017-11-11T00:21:48.422Z,0
2017-11-11T00:22:49.142Z,0
2017-11-11T00:23:49.942Z,0
2017-11-11T00:24:50.668Z,0
2017-11-11T00:25:51.452Z,0
2017-11-11T00:26:52.171Z,0
2017-11-11T00:27:52.900Z,0
2017-11-11T00:28:53.663Z,0
2017-11-11T00:29:54.385Z,0
2017-11-11T00:30:55.153Z,0
2017-11-11T00:31:55.878Z,0
2017-11-11T00:32:56.681Z,0
2017-11-11T00:33:57.757Z,0
2017-11-11T00:34:58.512Z,0
2017-11-11T00:35:59.225Z,0
2017-11-11T00:36:59.934Z,0
2017-11-11T00:38:00.722Z,0
2017-11-11T00:39:01.744Z,0
2017-11-11T00:40:02.530Z,0
2017-11-11T00:41:03.374Z,0
2017-11-11T00:42:04.137Z,0
2017-11-11T00:43:04.903Z,0
2017-11-11T00:44:05.721Z,0
2017-11-11T00:45:06.443Z,0
2017-11-11T00:46:07.163Z,0
2017-11-11T00:47:07.876Z,0
2017-11-11T00:48:08.584Z,0
2017-11-11T00:49:09.317Z,0
2017-11-11T00:50:10.068Z,0
2017-11-11T00:51:10.787Z,0
2017-11-11T00:52:11.577Z,0
2017-11-11T00:53:12.346Z,0
2017-11-11T00:54:13.210Z,0
2017-11-11T00:55:13.962Z,0
2017-11-11T00:56:14.672Z,0
2017-11-11T00:57:15.392Z,0
2017-11-11T00:58:16.111Z,0
2017-11-11T00:59:17.254Z,0
2017-11-11T01:00:18.034Z,0
2017-11-11T01:01:18.818Z,0
2017-11-11T01:02:19.542Z,0
2017-11-11T01:03:20.350Z,0
2017-11-11T01:04:21.167Z,0
2017-11-11T01:05:21.892Z,0
2017-11-11T01:06:22.624Z,0
2017-11-11T01:07:23.413Z,0
2017-11-11T01:08:24.144Z,0
2017-11-11T01:09:24.994Z,0
2017-11-11T01:10:25.765Z,0
2017-11-11T01:11:26.563Z,0
2017-11-11T01:12:27.297Z,0
2017-11-11T01:13:28.024Z,0
2017-11-11T01:14:28.926Z,0
2017-11-11T01:15:29.709Z,0
2017-11-11T01:16:30.485Z,0
2017-11-11T01:17:31.287Z,0
2017-11-11T01:18:32.009Z,0
2017-11-11T01:19:32.822Z,0
2017-11-11T01:20:33.558Z,0
2017-11-11T01:21:34.280Z,0
2017-11-11T01:22:35.047Z,0
2017-11-11T01:23:35.837Z,0
2017-11-11T01:24:36.665Z,0
2017-11-11T01:25:37.382Z,0
2017-11-11T01:26:38.102Z,0
2017-11-11T01:27:38.833Z,0
2017-11-11T01:28:39.554Z,0
2017-11-11T01:29:40.435Z,0
2017-11-11T01:30:41.225Z,0
2017-11-11T01:31:42.018Z,0
2017-11-11T01:32:42.739Z,0
2017-11-11T01:33:43.564Z,0
2017-11-11T01:34:44.334Z,0
2017-11-11T01:35:45.093Z,0
2017-11-11T01:36:45.813Z,0
2017-11-11T01:37:46.603Z,0
2017-11-11T01:38:47.324Z,0
2017-11-11T01:39:48.821Z,0
2017-11-11T01:40:49.583Z,0
2017-11-11T01:41:50.302Z,0
2017-11-11T01:42:51.025Z,0
2017-11-11T01:43:51.757Z,0
2017-11-11T01:44:52.472Z,0
2017-11-11T01:45:53.190Z,0
2017-11-11T01:46:53.924Z,0
2017-11-11T01:47:54.647Z,0
2017-11-11T01:48:55.422Z,0
2017-11-11T01:49:56.247Z,0
2017-11-11T01:50:56.962Z,0
2017-11-11T01:51:57.678Z,0
2017-11-11T01:52:58.403Z,0
2017-11-11T01:53:59.137Z,0
2017-11-11T01:55:00.032Z,0
2017-11-11T01:56:00.763Z,0
2017-11-11T01:57:01.480Z,0
2017-11-11T01:58:02.194Z,0
2017-11-11T01:59:03.002Z,0
2017-11-11T02:00:03.723Z,0
2017-11-11T02:01:04.449Z,0
2017-11-11T02:02:05.217Z,0
2017-11-11T02:03:05.929Z,0
2017-11-11T02:04:06.658Z,0
2017-11-11T02:05:07.395Z,0
2017-11-11T02:06:08.109Z,0
2017-11-11T02:07:09.281Z,0
2017-11-11T02:08:10.022Z,0
2017-11-11T02:09:10.742Z,0
2017-11-11T02:10:11.461Z,0
2017-11-11T02:11:12.177Z,0
2017-11-11T02:12:13.003Z,0
2017-11-11T02:13:13.732Z,0
2017-11-11T02:14:14.451Z,0
2017-11-11T02:15:15.177Z,0
2017-11-11T02:16:15.982Z,0
2017-11-11T02:17:16.801Z,0
2017-11-11T02:18:17.522Z,0
2017-11-11T02:19:18.243Z,0
2017-11-11T02:20:18.971Z,0
2017-11-11T02:21:19.789Z,0
2017-11-11T02:22:20.601Z,0
2017-11-11T02:23:21.327Z,0
2017-11-11T02:24:22.044Z,0
2017-11-11T02:25:22.761Z,0
2017-11-11T02:26:23.482Z,0
2017-11-11T02:27:24.202Z,0
2017-11-11T02:28:24.934Z,0
2017-11-11T02:29:25.702Z,0
2017-11-11T02:30:26.442Z,0
2017-11-11T02:31:27.263Z,0
2017-11-11T02:32:28.032Z,0
2017-11-11T02:33:28.752Z,0
2017-11-11T02:34:29.553Z,0
2017-11-11T02:35:30.273Z,0
2017-11-11T02:36:31.082Z,0
2017-11-11T02:37:31.796Z,0
2017-11-11T02:38:32.514Z,0
2017-11-11T02:39:33.304Z,0
2017-11-11T02:40:34.022Z,0
2017-11-11T02:41:34.752Z,0
2017-11-11T02:42:35.477Z,0
2017-11-11T02:43:36.276Z,0
2017-11-11T02:44:36.996Z,0
2017-11-11T02:45:37.705Z,0
2017-11-11T02:46:38.608Z,0
2017-11-11T02:47:39.426Z,0
2017-11-11T02:48:40.134Z,0
2017-11-11T02:49:40.921Z,0
2017-11-11T02:50:41.642Z,0
2017-11-11T02:51:42.363Z,0
2017-11-11T02:52:43.084Z,0
2017-11-11T02:53:43.874Z,0
2017-11-11T02:54:44.660Z,0
2017-11-11T02:55:45.371Z,0
2017-11-11T02:56:46.092Z,0
2017-11-11T02:57:46.898Z,0
2017-11-11T02:58:47.752Z,0
2017-11-11T02:59:48.468Z,0
2017-11-11T03:00:49.189Z,0
2017-11-11T03:01:49.983Z,0
2017-11-11T03:02:50.712Z,0
2017-11-11T03:03:51.433Z,0
2017-11-11T03:04:52.134Z,0
2017-11-11T03:05:52.930Z,0
2017-11-11T03:06:53.643Z,0
2017-11-11T03:07:54.464Z,0
2017-11-11T03:08:55.187Z,0
2017-11-11T03:09:55.995Z,0
2017-11-11T03:10:56.691Z,0
2017-11-11T03:11:57.411Z,0
2017-11-11T03:12:58.127Z,0
2017-11-11T03:13:58.859Z,0
2017-11-11T03:14:59.632Z,0
2017-11-11T03:16:00.455Z,0
2017-11-11T03:17:01.243Z,0
2017-11-11T03:18:02.021Z,0
2017-11-11T03:19:02.735Z,0
2017-11-11T03:20:03.522Z,0
2017-11-11T03:21:04.311Z,0
2017-11-11T03:22:05.034Z,0
2017-11-11T03:23:05.823Z,0
2017-11-11T03:24:06.556Z,0
2017-11-11T03:25:07.334Z,0
2017-11-11T03:26:08.556Z,0
2017-11-11T03:27:09.274Z,0
2017-11-11T03:28:10.069Z,0
2017-11-11T03:29:10.791Z,0
2017-11-11T03:30:11.504Z,0
2017-11-11T03:31:12.274Z,0
2017-11-11T03:32:12.991Z,0
2017-11-11T03:33:13.710Z,0
2017-11-11T03:34:14.493Z,0
2017-11-11T03:35:15.209Z,0
2017-11-11T03:36:15.971Z,0
2017-11-11T03:37:16.727Z,0
2017-11-11T03:38:17.490Z,0
2017-11-11T03:39:18.214Z,0
2017-11-11T03:40:18.931Z,0
2017-11-11T03:41:19.833Z,0
2017-11-11T03:42:20.626Z,0
2017-11-11T03:43:21.345Z,0
2017-11-11T03:44:22.129Z,0
2017-11-11T03:45:22.842Z,0
2017-11-11T03:46:23.566Z,0
2017-11-11T03:47:24.742Z,0
2017-11-11T03:48:25.524Z,0
2017-11-11T03:49:26.271Z,0
2017-11-11T03:50:26.982Z,0
2017-11-11T03:51:27.709Z,0
2017-11-11T03:52:28.497Z,0
2017-11-11T03:53:29.225Z,0
2017-11-11T03:54:29.981Z,0
2017-11-11T03:55:30.693Z,0
2017-11-11T03:56:31.481Z,0
2017-11-11T03:57:32.192Z,0
2017-11-11T03:58:32.911Z,0
2017-11-11T03:59:33.752Z,0
2017-11-11T04:00:34.539Z,0
2017-11-11T04:01:35.267Z,0
2017-11-11T04:02:36.042Z,0
2017-11-11T04:03:36.762Z,0
2017-11-11T04:04:37.536Z,0
2017-11-11T04:05:38.350Z,0
2017-11-11T04:06:39.071Z,0
2017-11-11T04:07:39.808Z,0
2017-11-11T04:08:40.574Z,0
2017-11-11T04:09:41.400Z,0
2017-11-11T04:10:42.190Z,0
2017-11-11T04:11:42.993Z,0
2017-11-11T04:12:43.784Z,0
2017-11-11T04:13:44.568Z,0
2017-11-11T04:14:45.725Z,0
2017-11-11T04:15:46.518Z,0
2017-11-11T04:16:47.235Z,0
2017-11-11T04:17:47.951Z,0
2017-11-11T04:18:48.675Z,0
2017-11-11T04:19:49.765Z,0
2017-11-11T04:20:50.535Z,0
2017-11-11T04:21:51.254Z,0
2017-11-11T04:22:51.978Z,0
2017-11-11T04:23:52.744Z,0
2017-11-11T04:24:53.514Z,0
2017-11-11T04:25:54.240Z,0
2017-11-11T04:26:55.000Z,0
2017-11-11T04:27:55.726Z,0
2017-11-11T04:28:56.437Z,0
2017-11-11T04:29:57.144Z,0
2017-11-11T04:30:57.865Z,0
2017-11-11T04:31:58.665Z,0
2017-11-11T04:32:59.442Z,0
2017-11-11T04:34:00.156Z,0
2017-11-11T04:35:00.865Z,0
2017-11-11T04:36:02.001Z,0
2017-11-11T04:37:02.783Z,0
2017-11-11T04:38:03.507Z,0
2017-11-11T04:39:04.307Z,0
2017-11-11T04:40:05.032Z,0
2017-11-11T04:41:05.867Z,0
2017-11-11T04:42:06.660Z,0
2017-11-11T04:43:07.438Z,0
2017-11-11T04:44:08.177Z,0
2017-11-11T04:45:08.975Z,0
2017-11-11T04:46:09.704Z,0
2017-11-11T04:47:10.429Z,0
2017-11-11T04:48:11.214Z,0
2017-11-11T04:49:11.996Z,0
2017-11-11T04:50:12.718Z,0
2017-11-11T04:51:13.428Z,0
2017-11-11T04:52:14.156Z,0
2017-11-11T04:53:14.965Z,0
2017-11-11T04:54:15.688Z,0
2017-11-11T04:55:16.497Z,0
2017-11-11T04:56:17.393Z,0
2017-11-11T04:57:18.072Z,0
2017-11-11T04:58:18.898Z,0
2017-11-11T04:59:19.639Z,0
2017-11-11T05:00:20.363Z,0
2017-11-11T05:01:21.191Z,0
2017-11-11T05:02:21.918Z,0
2017-11-11T05:03:22.693Z,0
2017-11-11T05:04:23.416Z,0
2017-11-11T05:05:24.149Z,0
2017-11-11T05:06:24.943Z,0
2017-11-11T05:07:25.725Z,0
2017-11-11T05:08:26.448Z,0
2017-11-11T05:09:27.224Z,0
2017-11-11T05:10:28.013Z,0
2017-11-11T05:11:28.861Z,0
2017-11-11T05:12:29.584Z,0
2017-11-11T05:13:30.296Z,0
2017-11-11T05:14:31.022Z,0
2017-11-11T05:15:31.742Z,0
2017-11-11T05:16:32.562Z,0
2017-11-11T05:17:33.323Z,0
2017-11-11T05:18:34.041Z,0
2017-11-11T05:19:34.773Z,0
2017-11-11T05:20:35.492Z,0
2017-11-11T05:21:36.270Z,0
2017-11-11T05:22:37.026Z,0
2017-11-11T05:23:37.727Z,0
2017-11-11T05:25:52.711Z,0
2017-11-11T05:26:53.436Z,0
2017-11-11T05:27:54.151Z,0
2017-11-11T05:28:54.862Z,0
2017-11-11T05:29:55.582Z,0
2017-11-11T05:30:56.302Z,0
2017-11-11T05:31:57.080Z,0
2017-11-11T05:32:57.862Z,0
2017-11-11T05:33:58.581Z,0
2017-11-11T05:34:59.309Z,0
2017-11-11T05:36:00.027Z,0
2017-11-11T05:37:00.853Z,0
2017-11-11T05:38:01.577Z,0
2017-11-11T05:39:02.373Z,0
2017-11-11T05:40:03.090Z,0
2017-11-11T05:41:03.815Z,0
2017-11-11T05:42:04.546Z,0
2017-11-11T05:43:05.257Z,0
2017-11-11T05:44:05.982Z,0
2017-11-11T05:45:06.703Z,0
2017-11-11T05:46:07.474Z,0
2017-11-11T05:47:08.272Z,0
2017-11-11T05:48:09.002Z,0
2017-11-11T05:49:09.748Z,0
2017-11-11T05:50:10.507Z,0
2017-11-11T05:51:11.627Z,0
2017-11-11T05:52:12.352Z,0
2017-11-11T05:53:13.082Z,0
2017-11-11T05:54:13.871Z,0
2017-11-11T05:55:14.593Z,0
2017-11-11T05:56:15.436Z,0
2017-11-11T05:57:16.222Z,0
2017-11-11T05:58:16.948Z,0
2017-11-11T05:59:17.753Z,0
2017-11-11T06:00:18.551Z,0
2017-11-11T06:01:19.267Z,0
2017-11-11T06:02:19.984Z,0
2017-11-11T06:03:20.764Z,0
2017-11-11T06:04:21.565Z,0
2017-11-11T06:05:22.416Z,0
2017-11-11T06:06:23.143Z,0
2017-11-11T06:07:23.862Z,0
2017-11-11T06:08:24.575Z,0
2017-11-11T06:09:25.293Z,0
2017-11-11T06:10:26.020Z,0
2017-11-11T06:11:26.810Z,0
2017-11-11T06:12:27.612Z,0
2017-11-11T06:13:28.340Z,0
2017-11-11T06:14:29.136Z,0
2017-11-11T06:15:29.923Z,0
2017-11-11T06:16:30.740Z,0
2017-11-11T06:17:31.765Z,0
2017-11-11T06:18:32.566Z,0
2017-11-11T06:19:33.292Z,0
2017-11-11T06:20:34.093Z,0
2017-11-11T06:21:34.812Z,0
2017-11-11T06:22:35.887Z,0
2017-11-11T06:23:36.653Z,0
2017-11-11T06:24:37.385Z,0
2017-11-11T06:25:38.144Z,0
2017-11-11T06:26:38.867Z,0
2017-11-11T06:27:39.762Z,0
2017-11-11T06:28:40.482Z,0
2017-11-11T06:29:41.202Z,0
2017-11-11T06:30:41.925Z,0
2017-11-11T06:31:42.653Z,0
2017-11-11T06:32:43.452Z,0
2017-11-11T06:33:44.181Z,0
2017-11-11T06:34:44.902Z,0
2017-11-11T06:35:45.630Z,0
2017-11-11T06:36:46.396Z,0
2017-11-11T06:37:47.273Z,0
2017-11-11T06:38:48.016Z,0
2017-11-11T06:39:48.773Z,0
2017-11-11T06:40:49.496Z,0
2017-11-11T06:41:50.236Z,5
2017-11-11T06:42:51.718Z,5
2017-11-11T06:43:52.445Z,11
2017-11-11T06:44:53.212Z,11
2017-11-11T06:45:53.932Z,11
2017-11-11T06:46:54.642Z,11
2017-11-11T06:47:55.462Z,16
2017-11-11T06:48:56.189Z,16
2017-11-11T06:49:56.965Z,16
2017-11-11T06:50:57.751Z,22
2017-11-11T06:51:58.473Z,28
2017-11-11T06:52:59.573Z,28
2017-11-11T06:54:00.372Z,28
2017-11-11T06:55:01.169Z,28
2017-11-11T06:56:01.949Z,28
2017-11-11T06:57:02.732Z,22
2017-11-11T06:58:03.504Z,22
2017-11-11T06:59:04.237Z,16
2017-11-11T07:00:05.004Z,16
2017-11-11T07:01:05.731Z,16
2017-11-11T07:02:06.453Z,11
2017-11-11T07:03:07.237Z,28
2017-11-11T07:04:08.003Z,39
2017-11-11T07:05:08.782Z,45
2017-11-11T07:06:09.588Z,50
2017-11-11T07:07:10.322Z,56
2017-11-11T07:08:11.143Z,67
2017-11-11T07:09:11.942Z,67
2017-11-11T07:10:12.665Z,67
2017-11-11T07:11:13.387Z,73
2017-11-11T07:12:14.102Z,78
2017-11-11T07:13:14.924Z,73
2017-11-11T07:14:15.652Z,78
2017-11-11T07:15:16.383Z,78
2017-11-11T07:16:17.194Z,84
2017-11-11T07:17:17.986Z,84
2017-11-11T07:18:18.843Z,90
2017-11-11T07:19:19.650Z,101
2017-11-11T07:20:20.435Z,112
2017-11-11T07:21:21.213Z,123
2017-11-11T07:22:22.023Z,123
2017-11-11T07:23:23.627Z,106
2017-11-11T07:24:24.353Z,90
2017-11-11T07:25:25.081Z,73
2017-11-11T07:26:25.816Z,67
2017-11-11T07:27:26.585Z,67
2017-11-11T07:28:28.015Z,73
2017-11-11T07:29:28.802Z,95
2017-11-11T07:30:29.531Z,118
2017-11-11T07:31:30.343Z,140
2017-11-11T07:32:31.103Z,151
2017-11-11T07:33:31.926Z,168
2017-11-11T07:34:32.721Z,174
2017-11-11T07:35:33.464Z,163
2017-11-11T07:36:34.198Z,129
2017-11-11T07:37:35.000Z,112
2017-11-11T07:38:35.857Z,101
2017-11-11T07:39:36.641Z,106
2017-11-11T07:40:37.361Z,112
2017-11-11T07:41:38.034Z,118
2017-11-11T07:42:38.853Z,129
2017-11-11T07:43:39.683Z,140
2017-11-11T07:44:40.453Z,151
2017-11-11T07:45:41.186Z,157
2017-11-11T07:46:42.000Z,168
2017-11-11T07:47:42.792Z,174
2017-11-11T07:48:43.584Z,168
2017-11-11T07:49:44.368Z,151
2017-11-11T07:50:45.106Z,146
2017-11-11T07:51:45.891Z,146
2017-11-11T07:52:46.617Z,146
2017-11-11T07:53:47.396Z,146
2017-11-11T07:54:48.171Z,163
2017-11-11T07:55:48.902Z,185
2017-11-11T07:56:49.632Z,202
2017-11-11T07:57:50.353Z,219
2017-11-11T07:58:51.433Z,236
2017-11-11T07:59:52.153Z,241
2017-11-11T08:00:52.878Z,225
2017-11-11T08:01:53.603Z,202
2017-11-11T08:02:54.332Z,196
2017-11-11T08:03:55.112Z,185
2017-11-11T08:04:55.959Z,191
2017-11-11T08:05:56.704Z,191
2017-11-11T08:06:57.481Z,191
2017-11-11T08:07:58.213Z,180
2017-11-11T08:08:59.033Z,174
2017-11-11T08:09:59.784Z,163
2017-11-11T08:11:00.525Z,157
2017-11-11T08:12:01.330Z,135
2017-11-11T08:13:02.062Z,157
2017-11-11T08:14:02.841Z,151
2017-11-11T08:15:03.570Z,157
2017-11-11T08:16:04.345Z,151
2017-11-11T08:18:06.083Z,157
2017-11-11T08:19:06.875Z,140
2017-11-11T08:20:07.602Z,140
2017-11-11T08:21:08.312Z,146
2017-11-11T08:22:09.036Z,157
2017-11-11T08:23:09.771Z,168
2017-11-11T08:24:10.591Z,146
2017-11-11T08:25:11.323Z,163
2017-11-11T08:26:12.063Z,168
2017-11-11T08:27:12.864Z,185
2017-11-11T08:28:13.581Z,196
2017-11-11T08:29:14.424Z,219
2017-11-11T08:30:15.205Z,196
2017-11-11T08:31:15.932Z,196
2017-11-11T08:32:16.662Z,191
2017-11-11T08:33:17.391Z,202
2017-11-11T08:34:18.173Z,196
2017-11-11T08:35:18.902Z,253
2017-11-11T08:36:19.612Z,286
2017-11-11T08:37:20.341Z,320
2017-11-11T08:38:21.069Z,326
2017-11-11T08:39:21.892Z,365
2017-11-11T08:40:22.622Z,472
2017-11-11T08:41:23.353Z,568
2017-11-11T08:42:24.077Z,545
2017-11-11T08:43:24.872Z,444
2017-11-11T08:44:25.733Z,326
2017-11-11T08:45:26.504Z,230
2017-11-11T08:46:27.293Z,208
2017-11-11T08:47:28.087Z,196
2017-11-11T08:48:28.867Z,202
2017-11-11T08:49:30.049Z,208
2017-11-11T08:50:30.780Z,202
2017-11-11T08:51:31.516Z,202
2017-11-11T08:52:32.302Z,219
2017-11-11T08:53:33.036Z,253
2017-11-11T08:54:33.863Z,292
2017-11-11T08:55:34.592Z,371
2017-11-11T08:56:35.330Z,275
2017-11-11T08:57:36.054Z,275
2017-11-11T08:58:36.785Z,286
2017-11-11T08:59:37.870Z,196
2017-11-11T09:00:38.606Z,118
2017-11-11T09:01:39.382Z,123
2017-11-11T09:02:40.114Z,101
2017-11-11T09:03:40.919Z,118
2017-11-11T09:04:41.694Z,140
2017-11-11T09:05:42.425Z,140
2017-11-11T09:06:43.152Z,174
2017-11-11T09:07:43.882Z,191
2017-11-11T09:08:44.601Z,196
2017-11-11T09:09:45.733Z,247
2017-11-11T09:10:46.451Z,202
2017-11-11T09:11:47.172Z,135
2017-11-11T09:12:47.902Z,118
2017-11-11T09:13:48.682Z,106
2017-11-11T09:14:49.427Z,73
2017-11-11T09:15:50.212Z,61
2017-11-11T09:16:50.931Z,112
2017-11-11T09:17:51.652Z,146
2017-11-11T09:18:52.364Z,202
2017-11-11T09:19:53.549Z,140
2017-11-11T09:20:54.328Z,146
2017-11-11T09:21:55.050Z,185
2017-11-11T09:22:55.793Z,191
2017-11-11T09:23:56.580Z,247
2017-11-11T09:24:57.653Z,174
2017-11-11T09:25:58.461Z,174
2017-11-11T09:26:59.193Z,275
2017-11-11T09:27:59.992Z,393
2017-11-11T09:29:00.712Z,258
2017-11-11T09:30:01.561Z,208
2017-11-11T09:31:02.226Z,309
2017-11-11T09:32:02.993Z,461
2017-11-11T09:33:03.720Z,247
2017-11-11T09:34:04.456Z,146
2017-11-11T09:35:05.205Z,151
2017-11-11T09:36:05.935Z,180
2017-11-11T09:37:06.662Z,326
2017-11-11T09:38:07.363Z,478
2017-11-11T09:39:08.087Z,427
2017-11-11T09:40:08.863Z,303
2017-11-11T09:41:09.606Z,213
2017-11-11T09:42:10.367Z,230
2017-11-11T09:43:11.123Z,258
2017-11-11T09:44:11.921Z,219
2017-11-11T09:45:12.647Z,292
2017-11-11T09:46:13.382Z,360
2017-11-11T09:47:14.181Z,360
2017-11-11T09:48:14.902Z,523
2017-11-11T09:49:15.923Z,540
2017-11-11T09:50:16.655Z,433
2017-11-11T09:51:17.388Z,309
2017-11-11T09:52:18.122Z,264
2017-11-11T09:53:18.850Z,472
2017-11-11T09:54:19.673Z,393
2017-11-11T09:55:20.399Z,556
2017-11-11T09:56:21.140Z,669
2017-11-11T09:57:21.882Z,601
2017-11-11T09:58:22.620Z,579
2017-11-11T09:59:23.431Z,562
2017-11-11T10:00:24.164Z,669
2017-11-11T10:01:24.903Z,568
2017-11-11T10:02:25.634Z,258
2017-11-11T10:03:26.363Z,264
2017-11-11T10:04:27.205Z,270
2017-11-11T10:05:28.031Z,320
2017-11-11T10:06:28.762Z,376
2017-11-11T10:07:29.496Z,489
2017-11-11T10:08:30.224Z,669
2017-11-11T10:09:30.957Z,388
2017-11-11T10:10:31.778Z,253
2017-11-11T10:11:32.593Z,315
2017-11-11T10:12:33.321Z,275
2017-11-11T10:13:34.053Z,371
2017-11-11T10:14:34.796Z,354
2017-11-11T10:15:35.586Z,275
2017-11-11T10:16:36.412Z,298
2017-11-11T10:17:37.143Z,241
2017-11-11T10:18:37.870Z,315
2017-11-11T10:19:38.653Z,427
2017-11-11T10:20:39.390Z,455
2017-11-11T10:21:40.165Z,433
2017-11-11T10:22:40.966Z,416
2017-11-11T10:23:41.751Z,540
2017-11-11T10:24:42.495Z,483
2017-11-11T10:25:43.221Z,354
2017-11-11T10:26:43.953Z,270
2017-11-11T10:27:44.678Z,163
2017-11-11T10:28:45.408Z,163
2017-11-11T10:29:46.137Z,213
2017-11-11T10:30:46.942Z,191
2017-11-11T10:31:47.774Z,225
2017-11-11T10:32:48.501Z,219
2017-11-11T10:33:49.222Z,303
2017-11-11T10:34:49.957Z,399
2017-11-11T10:35:50.768Z,433
2017-11-11T10:36:51.631Z,393
2017-11-11T10:37:52.353Z,450
2017-11-11T10:38:53.082Z,568
2017-11-11T10:39:53.832Z,630
2017-11-11T10:40:54.595Z,399
2017-11-11T10:41:55.367Z,405
2017-11-11T10:42:56.122Z,303
2017-11-11T10:43:56.933Z,286
2017-11-11T10:44:57.674Z,326
2017-11-11T10:45:58.453Z,213
2017-11-11T10:46:59.180Z,230
2017-11-11T10:47:59.910Z,230
2017-11-11T10:49:00.694Z,225
2017-11-11T10:50:01.847Z,230
2017-11-11T10:51:02.571Z,309
2017-11-11T10:52:03.302Z,348
2017-11-11T10:53:04.030Z,421
2017-11-11T10:54:04.761Z,326
2017-11-11T10:55:05.587Z,309
2017-11-11T10:56:06.367Z,281
2017-11-11T10:57:07.149Z,292
2017-11-11T10:58:07.934Z,230
2017-11-11T10:59:08.662Z,185
2017-11-11T11:00:09.384Z,208
2017-11-11T11:01:10.243Z,202
2017-11-11T11:02:10.968Z,174
2017-11-11T11:03:11.696Z,163
2017-11-11T11:04:12.479Z,151
2017-11-11T11:05:13.252Z,168
2017-11-11T11:06:14.286Z,264
2017-11-11T11:07:15.047Z,163
2017-11-11T11:08:15.772Z,146
2017-11-11T11:09:16.588Z,219
2017-11-11T11:10:17.381Z,236
2017-11-11T11:11:18.211Z,354
2017-11-11T11:12:18.943Z,315
2017-11-11T11:13:19.751Z,461
2017-11-11T11:14:20.492Z,472
2017-11-11T11:15:21.218Z,551
2017-11-11T11:16:21.942Z,393
2017-11-11T11:17:22.683Z,247
2017-11-11T11:18:23.453Z,258
2017-11-11T11:19:24.181Z,264
2017-11-11T11:20:24.980Z,168
2017-11-11T11:21:25.825Z,236
2017-11-11T11:22:26.602Z,225
2017-11-11T11:23:27.338Z,135
2017-11-11T11:24:28.073Z,135
2017-11-11T11:25:28.806Z,151
2017-11-11T11:26:29.531Z,118
2017-11-11T11:27:30.262Z,168
2017-11-11T11:28:31.048Z,157
2017-11-11T11:29:31.787Z,185
2017-11-11T11:30:32.510Z,140
2017-11-11T11:31:33.317Z,174
2017-11-11T11:32:34.101Z,146
2017-11-11T11:33:34.875Z,135
2017-11-11T11:34:35.686Z,118
2017-11-11T11:35:36.496Z,196
2017-11-11T11:36:37.289Z,213
2017-11-11T11:37:38.087Z,174
2017-11-11T11:38:38.810Z,151
2017-11-11T11:39:39.541Z,174
2017-11-11T11:40:40.723Z,174
2017-11-11T11:41:41.499Z,180
2017-11-11T11:42:42.226Z,202
2017-11-11T11:43:42.956Z,202
2017-11-11T11:44:43.758Z,270
2017-11-11T11:45:44.962Z,315
2017-11-11T11:46:45.695Z,219
2017-11-11T11:47:46.476Z,196
2017-11-11T11:48:47.272Z,258
2017-11-11T11:49:48.008Z,219
2017-11-11T11:50:48.725Z,399
2017-11-11T11:51:49.452Z,331
2017-11-11T11:52:50.174Z,298
2017-11-11T11:53:50.909Z,180
2017-11-11T11:54:51.694Z,185
2017-11-11T11:55:52.491Z,275
2017-11-11T11:56:53.203Z,202
2017-11-11T11:57:54.010Z,208
2017-11-11T11:58:54.795Z,253
2017-11-11T11:59:55.556Z,157
2017-11-11T12:00:57.128Z,253
2017-11-11T12:01:57.931Z,326
2017-11-11T12:02:58.692Z,292
2017-11-11T12:03:59.425Z,326
2017-11-11T12:05:00.221Z,365
2017-11-11T12:06:01.002Z,303
2017-11-11T12:07:01.741Z,270
2017-11-11T12:08:02.487Z,421
2017-11-11T12:09:03.216Z,399
2017-11-11T12:10:04.101Z,343
2017-11-11T12:11:05.336Z,450
2017-11-11T12:12:06.196Z,495
2017-11-11T12:13:08.056Z,343
2017-11-11T12:14:08.999Z,315
2017-11-11T12:15:09.928Z,309
2017-11-11T12:16:11.031Z,264
2017-11-11T12:17:11.811Z,180
2017-11-11T12:18:12.545Z,180
2017-11-11T12:19:13.263Z,196
2017-11-11T12:20:13.981Z,180
2017-11-11T12:21:15.104Z,196
2017-11-11T12:22:15.834Z,247
2017-11-11T12:23:16.622Z,286
2017-11-11T12:24:17.342Z,281
2017-11-11T12:25:18.147Z,281
2017-11-11T12:26:18.912Z,360
2017-11-11T12:27:19.641Z,405
2017-11-11T12:28:20.379Z,388
2017-11-11T12:29:21.102Z,421
2017-11-11T12:30:21.828Z,382
2017-11-11T12:31:22.903Z,360
2017-11-11T12:32:23.721Z,405
2017-11-11T12:33:24.496Z,388
2017-11-11T12:34:25.293Z,382
2017-11-11T12:35:26.010Z,348
2017-11-11T12:36:27.042Z,275
2017-11-11T12:37:27.827Z,270
2017-11-11T12:38:28.602Z,309
2017-11-11T12:39:29.322Z,281
2017-11-11T12:40:30.044Z,208
2017-11-11T12:41:30.786Z,163
2017-11-11T12:42:31.563Z,129
2017-11-11T12:43:32.307Z,168
2017-11-11T12:44:33.070Z,208
2017-11-11T12:45:33.804Z,264
2017-11-11T12:46:34.634Z,298
2017-11-11T12:47:35.441Z,320
2017-11-11T12:48:36.162Z,348
2017-11-11T12:49:36.898Z,371
2017-11-11T12:50:37.611Z,405
2017-11-11T12:51:38.688Z,405
2017-11-11T12:52:39.416Z,388
2017-11-11T12:53:40.209Z,371
2017-11-11T12:54:40.986Z,331
2017-11-11T12:55:41.711Z,421
2017-11-11T12:56:42.432Z,410
2017-11-11T12:57:43.162Z,376
2017-11-11T12:58:43.891Z,427
2017-11-11T12:59:44.621Z,433
2017-11-11T13:00:45.355Z,472
2017-11-11T13:01:46.596Z,376
2017-11-11T13:02:47.401Z,343
2017-11-11T13:03:48.124Z,444
2017-11-11T13:04:48.932Z,506
2017-11-11T13:05:49.661Z,450
2017-11-11T13:06:50.723Z,405
2017-11-11T13:07:51.511Z,421
2017-11-11T13:08:52.242Z,360
2017-11-11T13:09:52.971Z,286
2017-11-11T13:10:53.703Z,225
2017-11-11T13:11:54.530Z,213
2017-11-11T13:12:55.303Z,281
2017-11-11T13:13:55.991Z,286
2017-11-11T13:14:57.223Z,365
2017-11-11T13:15:57.912Z,360
2017-11-11T13:16:58.711Z,337
2017-11-11T13:17:59.519Z,343
2017-11-11T13:19:00.355Z,354
2017-11-11T13:20:01.082Z,343
2017-11-11T13:21:01.810Z,298
2017-11-11T13:22:02.606Z,309
2017-11-11T13:23:03.395Z,348
2017-11-11T13:24:04.170Z,326
2017-11-11T13:25:04.881Z,309
2017-11-11T13:26:05.672Z,337
2017-11-11T13:27:08.817Z,326
2017-11-11T13:28:10.919Z,281
2017-11-11T13:29:12.225Z,264
2017-11-11T13:30:13.042Z,185
2017-11-11T13:31:13.943Z,225
2017-11-11T13:32:15.124Z,253
2017-11-11T13:33:15.865Z,241
2017-11-11T13:34:16.689Z,219
2017-11-11T13:35:17.462Z,174
2017-11-11T13:36:18.195Z,146
2017-11-11T13:37:18.911Z,123
2017-11-11T13:38:19.637Z,78
2017-11-11T13:39:20.365Z,39
2017-11-11T13:40:21.142Z,28
2017-11-11T13:41:21.881Z,33
2017-11-11T13:42:22.613Z,39
2017-11-11T13:43:23.342Z,45
2017-11-11T13:44:24.063Z,56
2017-11-11T13:45:24.949Z,78
2017-11-11T13:46:25.672Z,95
2017-11-11T13:47:26.505Z,84
2017-11-11T13:48:27.290Z,67
2017-11-11T13:49:28.023Z,61
2017-11-11T13:50:28.773Z,50
2017-11-11T13:51:29.502Z,50
2017-11-11T13:52:30.235Z,56
2017-11-11T13:53:31.041Z,61
2017-11-11T13:54:31.812Z,67
2017-11-11T13:55:32.994Z,67
2017-11-11T13:56:33.713Z,73
2017-11-11T13:57:34.449Z,78
2017-11-11T13:58:35.183Z,78
2017-11-11T13:59:35.906Z,78
2017-11-11T14:00:37.032Z,84
2017-11-11T14:01:37.753Z,90
2017-11-11T14:02:38.472Z,95
2017-11-11T14:03:39.204Z,78
2017-11-11T14:04:39.927Z,67
2017-11-11T14:05:40.702Z,61
2017-11-11T14:06:41.433Z,56
2017-11-11T14:07:42.152Z,50
2017-11-11T14:08:42.892Z,39
2017-11-11T14:09:43.684Z,39
2017-11-11T14:10:44.598Z,39
2017-11-11T14:11:45.382Z,39
2017-11-11T14:12:46.165Z,39
2017-11-11T14:13:46.892Z,33
2017-11-11T14:14:47.638Z,28
2017-11-11T14:15:48.639Z,28
2017-11-11T14:16:49.403Z,28
2017-11-11T14:17:50.124Z,33
2017-11-11T14:18:50.913Z,33
2017-11-11T14:19:51.650Z,39
2017-11-11T14:20:52.483Z,39
2017-11-11T14:21:53.252Z,39
2017-11-11T14:22:53.984Z,33
2017-11-11T14:23:54.700Z,33
2017-11-11T14:24:55.426Z,33
2017-11-11T14:25:56.215Z,33
2017-11-11T14:26:57.001Z,33
2017-11-11T14:27:57.724Z,33
2017-11-11T14:28:58.443Z,39
2017-11-11T14:29:59.243Z,39